Terminal Aerodrome Forecast
Issued by NWS Cleveland, OH

Home | Current Version | Previous Version | Text Only | Print | Product List | Glossary Off
Versions: 1 2 3 4 5 6 7 8 9 10 11 12 13 14 15 16 17

993
FTUS41 KCLE 031731
TAFTOL
TAF
KTOL 031731Z 0318/0418 28006KT P6SM OVC030
     FM032200 26006KT P6SM OVC035
     FM041000 13005KT P6SM SCT035 OVC150=

USA.gov is the U.S. government's official web portal to all federal, state and local government web resources and services.